x

Cape Cleare - 17 Nm South Of Montague Is, Ak (46076) Wave Buoy

4:50am - Sat 27th May 2017 All times are AKDT. -8 hours from GMT.

  • Sig Wave height 2.6ft
  • Swell Direction
  • Peak Period 15s
  • Average Period 5s
  • Wind
    16mph, 18mph gusts
  • Sea Temp 45°f
  • Air Temp 43°f
  • Sea Pressure 1020.8mb
  • Cape Cleare - 17 Nm South Of Montague Is,  Ak
  • Cape Cleare - 17 Nm South Of Montague Is,  Ak

More Historic Weather Station data

Upgrade to MSW Pro to gain access to the past 30 days of data for over 8000 Wavebouys and Weather Stations around the globe.

Join Pro

Comparision Forecast

View Surf forecast
   
Sat 05/27 4:50am 2.5ft 15s 5s 16 18 mph 1020.8mb 45f 43f
3:50am 2.5ft 16s 5s 18 25 mph 1020.9mb 45f 43f
2:50am 3ft 14s 5s 4 7 mph 1021.2mb 45f 43f
1:50am 3.5ft 15s 5s 7 9 mph 1021.6mb 45f 43f
12:50am 3.5ft 15s 5s 13 16 mph 1021.5mb 45f 44f
Fri 05/26 11:50pm 3ft 14s 5s 11 13 mph 1021.8mb 45f 44f
10:50pm 3ft 15s 5s 11 13 mph 1021.9mb 45f 44f
9:50pm 3.5ft 14s 5s 9 11 mph 1021.9mb 45f 44f
8:50pm 3ft 14s 5s 9 11 mph 1022mb 45f 44f
7:50pm 3ft 15s 5s 11 13 mph 1021.9mb 45f 45f
6:50pm 3.5ft 14s 6s 13 16 mph 1022mb 45f 44f
5:50pm 3ft 15s 5s 11 16 mph 1022.1mb 46f 44f
4:50pm 3.5ft 7s 6s 9 11 mph 1022.1mb 46f 45f
3:50pm 4ft 7s 6s 9 11 mph 1022.3mb 46f 44f
2:50pm 4ft 7s 6s 7 7 mph 1022.1mb 46f 44f
1:50pm 4.5ft 7s 6s 7 9 mph 1021.9mb 46f 44f
12:50pm 4.5ft 7s 6s 9 11 mph 1022mb 45f 44f
11:50am 4.5ft 8s 6s 9 11 mph 1021.9mb 45f 45f
10:50am 3.5ft 8s 6s 7 9 mph 1021.6mb 45f 45f
9:50am 3.5ft 7s 6s 2 4 mph 1021.5mb 45f 44f
8:50am 3.5ft 14s 6s 7 7 mph 1021.3mb 45f 44f
7:50am 4ft 7s 6s 11 13 mph 1021mb 45f 44f
6:50am 4ft 8s 5s 13 16 mph 1020.6mb 45f 44f
5:50am 4.5ft 6s 5s 13 16 mph 1020.2mb 45f 44f
4:50am 5ft 7s 5s 16 18 mph 1019.8mb 45f 44f
3:50am 5ft 6s 5s 18 20 mph 1019.4mb 45f 44f
2:50am 5ft 7s 5s 18 22 mph 1019.2mb 45f 44f
1:50am 6ft 7s 5s 18 22 mph 1018.9mb 45f 44f
12:50am 5.5ft 6s 5s 20 25 mph 1018.6mb 45f 44f
Thu 05/25 11:50pm 6ft 7s 5s 20 25 mph 1018.1mb 45f 44f
10:50pm 6ft 7s 5s 20 27 mph 1017.7mb 45f 44f
9:50pm 6.5ft 6s 6s 22 25 mph 1017.2mb 45f 44f
8:50pm 6ft 6s 5s 22 27 mph 1017.1mb 45f 44f
7:50pm 6ft 6s 5s 22 27 mph 1016.8mb 45f 45f
6:50pm 6ft 8s 5s 22 27 mph 1016.8mb 45f 44f
5:50pm 6ft 9s 5s 25 29 mph 1016.6mb 45f 44f
4:50pm 5ft 8s 5s 20 25 mph 1016.7mb 45f 45f
3:50pm 5ft 8s 6s 18 20 mph 1016.7mb 45f 44f
2:50pm 5ft 8s 6s 16 18 mph 1016.5mb 46f 45f
1:50pm 5ft 9s 6s 11 16 mph 1016.4mb 45f 45f
12:50pm 6ft 8s 6s 11 13 mph 1016.4mb 45f 44f
11:50am 6ft 9s 6s 11 13 mph 1016.7mb 46f 44f
10:50am 7ft 8s 7s 11 16 mph 1016.9mb 45f 45f
9:50am 7ft 9s 6s 11 16 mph 1017mb 45f 45f
8:50am 6.5ft 8s 6s 13 16 mph 1017.2mb 45f 44f
7:50am 6.5ft 10s 7s 13 16 mph 1017.1mb 45f 44f
6:50am 6ft 8s 6s 13 16 mph 1017.3mb 45f 44f
5:50am 6ft 9s 7s 16 18 mph 1017.2mb 45f 44f
4:50am 6.5ft 9s 7s 13 16 mph 1017.2mb 45f 44f
3:50am 6.5ft 8s 7s 13 16 mph 1017.4mb 45f 45f
2:50am 7ft 9s 7s 13 18 mph 1017.3mb 45f 45f
1:50am 8ft 9s 7s 16 18 mph 1017.4mb 45f 45f
12:50am 8.5ft 10s 7s 16 18 mph 1017.1mb 45f 45f
Wed 05/24 11:50pm 8ft 9s 7s 13 16 mph 1016.9mb 45f 45f
10:50pm 9ft 9s 7s 13 18 mph 1016.6mb 45f 45f
9:50pm 9.5ft 9s 7s 13 18 mph 1016.6mb 45f 45f
8:50pm 9ft 10s 7s 18 22 mph 1016.6mb 45f 45f
7:50pm 8.5ft 9s 7s 18 20 mph 1017mb 45f 45f
6:50pm 8.5ft 9s 6s 16 20 mph 1017.2mb 45f 45f
5:50pm 7.5ft 8s 6s 18 22 mph 1017.6mb 45f 45f
4:50pm 7.5ft 9s 6s 18 22 mph 1017.9mb 45f 45f
3:50pm 8ft 9s 7s 13 18 mph 1018.3mb 45f 45f
2:50pm 8ft 9s 7s 16 18 mph 1018.5mb 45f 45f
1:50pm 7ft 9s 6s 13 16 mph 1018.9mb 46f 45f
12:50pm 7ft 9s 7s 11 13 mph 1018.9mb 46f 45f
11:50am 7ft 9s 7s 13 16 mph 1019.2mb 45f 45f
10:50am 7ft 9s 7s 16 18 mph 1019.2mb 45f 45f
9:50am 6ft 9s 6s 16 18 mph 1019.4mb 45f 45f
8:50am 6.5ft 9s 7s 13 18 mph 1019.5mb 45f 45f
7:50am 6ft 8s 7s 13 16 mph 1019.4mb 45f 45f
6:50am 5ft 8s 6s 11 13 mph 1019.5mb 45f 45f
5:50am 5ft 9s 7s 11 13 mph 1019.6mb 45f 44f
4:50am 5ft 9s 6s 11 11 mph 1019.6mb 45f 45f
3:50am 5ft 10s 6s 11 13 mph 1019.6mb 45f 44f
2:50am 5.5ft 8s 6s 7 9 mph 1019.6mb 45f 45f
1:50am 5ft 9s 6s 9 11 mph 1019.5mb 45f 44f
12:50am 5ft 9s 6s 11 13 mph 1019.5mb 46f 45f
Tue 05/23 11:50pm 6ft 9s 6s 13 16 mph 1019.5mb 45f 45f
10:50pm 5.5ft 10s 6s 16 18 mph 1019.3mb 46f 45f
9:50pm 6ft 10s 6s 18 22 mph 1019.1mb 45f 45f
8:50pm 5.5ft 10s 6s 16 20 mph 1019.1mb 45f 45f
7:50pm 6.5ft 7s 6s 16 20 mph 1019.2mb 45f 45f
6:50pm 7ft 10s 6s 20 25 mph 1018.9mb 45f 45f
5:50pm 6.5ft 6s 6s 22 27 mph 1018.7mb 45f 45f
4:50pm 7ft 6s 5s 22 29 mph 1018.5mb 45f 45f
3:50pm 7ft 6s  -  25 29 mph 1018.3mb 45f 45f
2:50pm 7ft 6s 5s 25 29 mph 1017.8mb 45f 44f
1:50pm 6ft 5s 5s 25 31 mph 1017.4mb 45f 45f